SAS949 EKCH-CYYZ
Flight info
| Callsign | SAS949 |
|---|---|
| Flight time | N/A |
| Altitude | 33000 |
| Route | LANGO P999 ALS P615 ASBIL/N0448F340 L983 PETIL DCT REKNA DCT RIVOT DCT INBAS DCT GINGA DCT AGORI DCT KESIX DCT SUNOT/M078F360 DCT 58N020W 58N030W 58N040W 57N050W DCT HOIST/N0452F360 N750B YBC/N0446F380 Q910 IMORI Q921 AGLUK Q941 TAMKO Q852 KANUR Q806 TUKIR RAGID6 |
| Aircraft | A21N/M-SDE2E3FGHIJ1RWXY/LB1 |
Departure
| Time | 2026-05-05 03:01 |
|---|---|
| Airport | Copenhagen Kastrup Airport (EKCH) |
Arrival
| Time | N/A |
|---|---|
| Airport | Toronto Pearson International Airport (CYYZ) |
| Time | Latitude | Longitude | Altitude | Speed | Heading |
|---|---|---|---|---|---|
| 2026-05-05 01:59 | 55.62559 | 12.64511 | 22 ft | 0 kts | 16° |
| 2026-05-05 02:06 | 55.62559 | 12.64510 | 22 ft | 0 kts | 16° |
| 2026-05-05 02:07 | 55.62559 | 12.64511 | 22 ft | 0 kts | 16° |
| 2026-05-05 02:16 | 55.62559 | 12.64510 | 22 ft | 0 kts | 16° |
| 2026-05-05 02:48 | 55.62543 | 12.64503 | 23 ft | 4 kts | 16° |
| 2026-05-05 02:48 | 55.62521 | 12.64492 | 22 ft | 5 kts | 18° |
| 2026-05-05 02:48 | 55.62505 | 12.64470 | 23 ft | 5 kts | 82° |
| 2026-05-05 02:48 | 55.62508 | 12.64443 | 22 ft | 3 kts | 123° |
| 2026-05-05 02:49 | 55.62497 | 12.64473 | 22 ft | 4 kts | 123° |
| 2026-05-05 02:49 | 55.62489 | 12.64495 | 22 ft | 1 kts | 123° |
| 2026-05-05 02:52 | 55.62488 | 12.64498 | 25 ft | 2 kts | 123° |
| 2026-05-05 02:53 | 55.62477 | 12.64527 | 23 ft | 4 kts | 123° |
| 2026-05-05 02:53 | 55.62459 | 12.64577 | 24 ft | 6 kts | 123° |
| 2026-05-05 02:53 | 55.62433 | 12.64647 | 23 ft | 8 kts | 123° |
| 2026-05-05 02:53 | 55.62400 | 12.64737 | 22 ft | 9 kts | 123° |
| 2026-05-05 02:54 | 55.62362 | 12.64841 | 22 ft | 11 kts | 123° |
| 2026-05-05 02:54 | 55.62319 | 12.64955 | 22 ft | 12 kts | 123° |
| 2026-05-05 02:54 | 55.62272 | 12.65080 | 23 ft | 11 kts | 123° |
| 2026-05-05 02:54 | 55.62225 | 12.65173 | 22 ft | 11 kts | 166° |
| 2026-05-05 02:55 | 55.62154 | 12.65120 | 22 ft | 12 kts | 213° |
| 2026-05-05 02:55 | 55.62081 | 12.65035 | 23 ft | 13 kts | 213° |
| 2026-05-05 02:55 | 55.62002 | 12.64943 | 23 ft | 14 kts | 213° |
| 2026-05-05 02:55 | 55.61919 | 12.64848 | 23 ft | 15 kts | 213° |
| 2026-05-05 02:56 | 55.61831 | 12.64747 | 23 ft | 15 kts | 213° |
| 2026-05-05 02:56 | 55.61738 | 12.64641 | 22 ft | 16 kts | 213° |
| 2026-05-05 02:56 | 55.61641 | 12.64529 | 22 ft | 17 kts | 213° |
| 2026-05-05 02:56 | 55.61540 | 12.64412 | 22 ft | 18 kts | 213° |
| 2026-05-05 02:57 | 55.61435 | 12.64291 | 22 ft | 18 kts | 213° |
| 2026-05-05 02:57 | 55.61324 | 12.64164 | 22 ft | 20 kts | 213° |
| 2026-05-05 02:57 | 55.61205 | 12.64027 | 22 ft | 21 kts | 213° |
| 2026-05-05 02:57 | 55.61082 | 12.63885 | 22 ft | 21 kts | 213° |
| 2026-05-05 02:58 | 55.60955 | 12.63739 | 22 ft | 22 kts | 213° |
| 2026-05-05 02:58 | 55.60824 | 12.63589 | 22 ft | 23 kts | 213° |
| 2026-05-05 02:58 | 55.60690 | 12.63435 | 22 ft | 23 kts | 214° |
| 2026-05-05 02:58 | 55.60582 | 12.63286 | 22 ft | 16 kts | 221° |
| 2026-05-05 02:59 | 55.60517 | 12.63183 | 22 ft | 10 kts | 221° |
| 2026-05-05 02:59 | 55.60460 | 12.63113 | 22 ft | 11 kts | 195° |
| 2026-05-05 02:59 | 55.60393 | 12.63165 | 22 ft | 12 kts | 131° |
| 2026-05-05 02:59 | 55.60340 | 12.63274 | 24 ft | 7 kts | 130° |
| 2026-05-05 03:00 | 55.60336 | 12.63342 | 25 ft | 7 kts | 57° |
| 2026-05-05 03:00 | 55.60372 | 12.63402 | 24 ft | 6 kts | 41° |
| 2026-05-05 03:00 | 55.60378 | 12.63411 | 26 ft | 0 kts | 40° |
| 2026-05-05 03:00 | 55.60436 | 12.63498 | 23 ft | 41 kts | 40° |
| 2026-05-05 03:01 | 55.60839 | 12.64123 | 24 ft | 110 kts | 41° |
| 2026-05-05 03:01 | 55.61569 | 12.65250 | 28 ft | 165 kts | 40° |
| 2026-05-05 03:01 | 55.62440 | 12.66594 | 543 ft | 165 kts | 40° |
| 2026-05-05 03:01 | 55.63313 | 12.67974 | 1069 ft | 176 kts | 40° |
| 2026-05-05 03:02 | 55.64286 | 12.69504 | 1415 ft | 197 kts | 40° |
| 2026-05-05 03:02 | 55.65358 | 12.71160 | 1888 ft | 209 kts | 38° |
| 2026-05-05 03:02 | 55.66509 | 12.72838 | 2313 ft | 221 kts | 37° |
| 2026-05-05 03:02 | 55.67756 | 12.74687 | 2628 ft | 245 kts | 37° |
| 2026-05-05 03:03 | 55.69072 | 12.76717 | 3107 ft | 258 kts | 42° |
| 2026-05-05 03:03 | 55.70076 | 12.79399 | 3747 ft | 268 kts | 68° |
| 2026-05-05 03:03 | 55.70320 | 12.82704 | 4452 ft | 277 kts | 97° |
| 2026-05-05 03:03 | 55.69676 | 12.85915 | 5164 ft | 280 kts | 126° |
| 2026-05-05 03:04 | 55.68264 | 12.88233 | 5882 ft | 280 kts | 154° |
| 2026-05-05 03:04 | 55.66448 | 12.89489 | 6593 ft | 281 kts | 166° |
| 2026-05-05 03:04 | 55.64591 | 12.90569 | 7396 ft | 282 kts | 165° |
| 2026-05-05 03:04 | 55.62721 | 12.91635 | 8177 ft | 282 kts | 170° |
| 2026-05-05 03:05 | 55.60785 | 12.91894 | 8926 ft | 279 kts | 193° |
| 2026-05-05 03:05 | 55.58983 | 12.90754 | 9673 ft | 275 kts | 216° |
| 2026-05-05 03:05 | 55.57565 | 12.88575 | 10300 ft | 278 kts | 229° |
| 2026-05-05 03:05 | 55.56226 | 12.85999 | 10609 ft | 292 kts | 230° |
| 2026-05-05 03:06 | 55.54805 | 12.83273 | 10872 ft | 311 kts | 229° |
| 2026-05-05 03:06 | 55.53301 | 12.80409 | 11187 ft | 324 kts | 231° |
| 2026-05-05 03:06 | 55.52038 | 12.77103 | 11778 ft | 327 kts | 245° |
| 2026-05-05 03:06 | 55.51348 | 12.73290 | 12458 ft | 328 kts | 261° |
| 2026-05-05 03:07 | 55.51153 | 12.69265 | 13146 ft | 331 kts | 266° |
| 2026-05-05 03:07 | 55.51042 | 12.65186 | 13799 ft | 334 kts | 266° |
| 2026-05-05 03:07 | 55.50919 | 12.61083 | 14437 ft | 337 kts | 265° |
| 2026-05-05 03:07 | 55.50780 | 12.56945 | 15053 ft | 339 kts | 265° |
| 2026-05-05 03:08 | 55.50630 | 12.52775 | 15648 ft | 342 kts | 265° |
| 2026-05-05 03:08 | 55.50474 | 12.48561 | 16232 ft | 346 kts | 265° |
| 2026-05-05 03:08 | 55.50312 | 12.44315 | 16810 ft | 348 kts | 265° |
| 2026-05-05 03:08 | 55.50145 | 12.40042 | 17345 ft | 350 kts | 264° |
| 2026-05-05 03:09 | 55.49971 | 12.35749 | 17872 ft | 353 kts | 264° |
| 2026-05-05 03:09 | 55.49780 | 12.31409 | 18392 ft | 356 kts | 264° |
| 2026-05-05 03:09 | 55.49584 | 12.27072 | 18886 ft | 358 kts | 264° |
| 2026-05-05 03:09 | 55.49382 | 12.22646 | 19357 ft | 361 kts | 264° |
| 2026-05-05 03:10 | 55.49179 | 12.18217 | 19821 ft | 364 kts | 264° |
| 2026-05-05 03:10 | 55.48973 | 12.13755 | 20269 ft | 367 kts | 264° |
| 2026-05-05 03:10 | 55.48763 | 12.09250 | 20704 ft | 370 kts | 264° |
| 2026-05-05 03:10 | 55.48552 | 12.04721 | 21144 ft | 373 kts | 264° |
| 2026-05-05 03:11 | 55.48340 | 12.00147 | 21611 ft | 375 kts | 264° |
| 2026-05-05 03:11 | 55.48124 | 11.95555 | 22039 ft | 378 kts | 264° |
| 2026-05-05 03:11 | 55.47904 | 11.90924 | 22456 ft | 380 kts | 264° |
| 2026-05-05 03:11 | 55.47683 | 11.86268 | 22866 ft | 383 kts | 264° |
| 2026-05-05 03:12 | 55.47459 | 11.81573 | 23258 ft | 386 kts | 264° |
| 2026-05-05 03:12 | 55.47229 | 11.76840 | 23655 ft | 388 kts | 264° |
| 2026-05-05 03:12 | 55.46993 | 11.72082 | 24046 ft | 391 kts | 264° |
| 2026-05-05 03:12 | 55.46836 | 11.68916 | 24300 ft | 393 kts | 264° |
| 2026-05-05 03:13 | 55.46594 | 11.64105 | 24697 ft | 395 kts | 264° |
| 2026-05-05 03:13 | 55.46351 | 11.59262 | 25092 ft | 398 kts | 264° |
| 2026-05-05 03:13 | 55.46025 | 11.52817 | 25609 ft | 400 kts | 264° |
| 2026-05-05 03:13 | 55.45772 | 11.47920 | 25968 ft | 402 kts | 263° |
| 2026-05-05 03:14 | 55.45600 | 11.44598 | 26206 ft | 404 kts | 263° |
| 2026-05-05 03:14 | 55.45256 | 11.38065 | 26687 ft | 406 kts | 263° |
| 2026-05-05 03:14 | 55.44988 | 11.33103 | 27044 ft | 407 kts | 263° |
| 2026-05-05 03:14 | 55.44721 | 11.28130 | 27365 ft | 408 kts | 263° |
| 2026-05-05 03:15 | 55.44540 | 11.24767 | 27576 ft | 409 kts | 263° |
| 2026-05-05 03:15 | 55.44272 | 11.19760 | 27884 ft | 411 kts | 263° |
| 2026-05-05 03:15 | 55.44000 | 11.14734 | 28185 ft | 413 kts | 263° |
| 2026-05-05 03:15 | 55.43726 | 11.09694 | 28483 ft | 414 kts | 263° |
| 2026-05-05 03:16 | 55.43452 | 11.04704 | 28768 ft | 416 kts | 263° |
| 2026-05-05 03:16 | 55.43170 | 10.99624 | 29056 ft | 417 kts | 263° |
| 2026-05-05 03:16 | 55.42880 | 10.94535 | 29310 ft | 419 kts | 263° |
| 2026-05-05 03:16 | 55.42589 | 10.89427 | 29601 ft | 419 kts | 263° |
| 2026-05-05 03:17 | 55.42299 | 10.84330 | 29977 ft | 418 kts | 263° |
| 2026-05-05 03:17 | 55.42008 | 10.79250 | 30345 ft | 417 kts | 263° |
| 2026-05-05 03:17 | 55.41716 | 10.74175 | 30665 ft | 416 kts | 263° |
| 2026-05-05 03:17 | 55.41426 | 10.69109 | 30970 ft | 416 kts | 263° |
| 2026-05-05 03:18 | 55.41132 | 10.64052 | 31286 ft | 415 kts | 263° |
| 2026-05-05 03:18 | 55.40835 | 10.58991 | 31563 ft | 415 kts | 263° |
| 2026-05-05 03:18 | 55.40537 | 10.53935 | 31860 ft | 415 kts | 263° |
| 2026-05-05 03:18 | 55.40238 | 10.48894 | 32149 ft | 415 kts | 263° |
| 2026-05-05 03:19 | 55.39624 | 10.38803 | 32649 ft | 415 kts | 263° |
| 2026-05-05 03:19 | 55.39314 | 10.33760 | 32875 ft | 415 kts | 263° |
| 2026-05-05 03:19 | 55.39005 | 10.28714 | 32981 ft | 415 kts | 263° |
| 2026-05-05 03:20 | 55.38385 | 10.18630 | 32987 ft | 415 kts | 263° |
| 2026-05-05 03:20 | 55.37750 | 10.08549 | 32969 ft | 415 kts | 263° |
| 2026-05-05 03:21 | 55.37450 | 9.98397 | 32966 ft | 417 kts | 274° |
| 2026-05-05 03:21 | 55.38683 | 9.88397 | 32983 ft | 420 kts | 282° |
| 2026-05-05 03:22 | 55.40158 | 9.78470 | 32983 ft | 420 kts | 282° |
| 2026-05-05 03:22 | 55.41585 | 9.68518 | 32989 ft | 419 kts | 281° |
| 2026-05-05 03:23 | 55.42988 | 9.58563 | 32994 ft | 419 kts | 281° |
| 2026-05-05 03:23 | 55.44375 | 9.48674 | 32994 ft | 419 kts | 281° |
| 2026-05-05 03:24 | 55.45760 | 9.38713 | 32991 ft | 419 kts | 281° |
| 2026-05-05 03:24 | 55.47136 | 9.28736 | 32990 ft | 419 kts | 281° |
| 2026-05-05 03:25 | 55.48506 | 9.18756 | 32987 ft | 419 kts | 281° |
| 2026-05-05 03:25 | 55.49875 | 9.08772 | 32996 ft | 419 kts | 281° |
| 2026-05-05 03:26 | 55.51228 | 8.98755 | 32982 ft | 420 kts | 281° |
| 2026-05-05 03:26 | 55.52573 | 8.88724 | 32982 ft | 420 kts | 280° |
| 2026-05-05 03:27 | 55.53911 | 8.78678 | 32988 ft | 420 kts | 280° |
| 2026-05-05 03:27 | 55.55251 | 8.68636 | 32995 ft | 420 kts | 281° |
| 2026-05-05 03:28 | 55.56584 | 8.58598 | 32995 ft | 419 kts | 280° |
| 2026-05-05 03:28 | 55.57900 | 8.48560 | 32988 ft | 419 kts | 280° |
| 2026-05-05 03:29 | 55.59203 | 8.38518 | 32992 ft | 419 kts | 280° |
| 2026-05-05 03:29 | 55.60619 | 8.28524 | 32989 ft | 421 kts | 286° |
| 2026-05-05 03:30 | 55.62666 | 8.18820 | 32986 ft | 421 kts | 288° |
| 2026-05-05 03:30 | 55.64727 | 8.09123 | 32995 ft | 421 kts | 287° |
| 2026-05-05 03:31 | 55.66770 | 7.99418 | 32986 ft | 420 kts | 287° |
| 2026-05-05 03:31 | 55.68807 | 7.89706 | 32994 ft | 421 kts | 288° |
| 2026-05-05 03:32 | 55.70835 | 7.79968 | 32995 ft | 421 kts | 287° |
| 2026-05-05 03:32 | 55.72854 | 7.70217 | 32988 ft | 421 kts | 287° |
| 2026-05-05 03:33 | 55.74853 | 7.60540 | 32988 ft | 420 kts | 287° |
| 2026-05-05 03:33 | 55.76854 | 7.50794 | 32990 ft | 420 kts | 287° |
| 2026-05-05 03:34 | 55.78847 | 7.41036 | 32985 ft | 420 kts | 287° |
| 2026-05-05 03:34 | 55.80833 | 7.31263 | 32984 ft | 421 kts | 287° |
| 2026-05-05 03:35 | 55.82812 | 7.21463 | 32988 ft | 421 kts | 287° |
| 2026-05-05 03:35 | 55.84792 | 7.11655 | 32978 ft | 421 kts | 287° |
| 2026-05-05 03:36 | 55.86760 | 7.01833 | 32988 ft | 421 kts | 287° |
| 2026-05-05 03:36 | 55.88716 | 6.92001 | 32988 ft | 421 kts | 287° |
| 2026-05-05 03:37 | 55.90667 | 6.82170 | 32993 ft | 421 kts | 287° |
| 2026-05-05 03:37 | 55.92594 | 6.72328 | 32982 ft | 419 kts | 286° |
| 2026-05-05 03:38 | 55.94240 | 6.62383 | 33011 ft | 416 kts | 276° |
| 2026-05-05 03:38 | 55.94426 | 6.52119 | 33002 ft | 414 kts | 268° |
| 2026-05-05 03:39 | 55.94415 | 6.41870 | 32991 ft | 413 kts | 269° |
| 2026-05-05 03:39 | 55.94416 | 6.31624 | 32997 ft | 413 kts | 269° |
| 2026-05-05 03:40 | 55.94424 | 6.21384 | 32999 ft | 412 kts | 269° |
| 2026-05-05 03:40 | 55.94428 | 6.11243 | 32999 ft | 412 kts | 269° |
| 2026-05-05 03:41 | 55.94418 | 6.01029 | 32996 ft | 412 kts | 269° |
| 2026-05-05 03:41 | 55.94396 | 5.90819 | 32990 ft | 412 kts | 269° |
| 2026-05-05 03:42 | 55.94368 | 5.80605 | 32984 ft | 412 kts | 268° |
| 2026-05-05 03:42 | 55.94331 | 5.70388 | 32995 ft | 412 kts | 268° |
| 2026-05-05 03:43 | 55.94290 | 5.60153 | 32993 ft | 413 kts | 268° |
| 2026-05-05 03:43 | 55.94239 | 5.49913 | 32993 ft | 413 kts | 268° |
| 2026-05-05 03:44 | 55.94182 | 5.39655 | 32993 ft | 414 kts | 268° |
| 2026-05-05 03:44 | 55.94115 | 5.29381 | 32987 ft | 415 kts | 268° |
| 2026-05-05 03:45 | 55.94036 | 5.19166 | 32990 ft | 415 kts | 268° |
| 2026-05-05 03:45 | 55.93949 | 5.08873 | 32984 ft | 415 kts | 268° |
| 2026-05-05 03:46 | 55.94161 | 4.98578 | 32978 ft | 417 kts | 278° |
| 2026-05-05 03:46 | 55.95683 | 4.88573 | 32999 ft | 419 kts | 284° |
| 2026-05-05 03:47 | 55.97346 | 4.78618 | 32999 ft | 418 kts | 284° |
| 2026-05-05 03:47 | 55.98966 | 4.68650 | 32998 ft | 417 kts | 284° |
| 2026-05-05 03:48 | 56.00575 | 4.58698 | 32989 ft | 417 kts | 284° |
| 2026-05-05 03:48 | 56.02153 | 4.48805 | 32990 ft | 412 kts | 284° |
| 2026-05-05 03:49 | 56.03728 | 4.38956 | 32989 ft | 413 kts | 284° |
| 2026-05-05 03:49 | 56.05289 | 4.29075 | 32993 ft | 413 kts | 284° |
| 2026-05-05 03:50 | 56.06841 | 4.19189 | 32989 ft | 413 kts | 284° |
| 2026-05-05 03:50 | 56.08385 | 4.09278 | 32993 ft | 413 kts | 283° |
| 2026-05-05 03:51 | 56.09922 | 3.99355 | 32994 ft | 413 kts | 283° |
| 2026-05-05 03:51 | 56.11453 | 3.89425 | 32985 ft | 414 kts | 283° |
| 2026-05-05 03:52 | 56.12982 | 3.79487 | 32990 ft | 414 kts | 283° |
| 2026-05-05 03:52 | 56.14510 | 3.69551 | 32990 ft | 413 kts | 283° |
| 2026-05-05 03:53 | 56.16018 | 3.59631 | 32981 ft | 412 kts | 283° |
| 2026-05-05 03:53 | 56.17478 | 3.49676 | 32988 ft | 412 kts | 280° |
| 2026-05-05 03:54 | 56.18470 | 3.39587 | 32992 ft | 410 kts | 278° |
| 2026-05-05 03:54 | 56.19421 | 3.29494 | 32991 ft | 410 kts | 278° |
| 2026-05-05 03:55 | 56.20394 | 3.19427 | 32987 ft | 409 kts | 278° |
| 2026-05-05 03:55 | 56.21338 | 3.09351 | 32993 ft | 409 kts | 278° |
| 2026-05-05 03:56 | 56.22265 | 2.99338 | 32987 ft | 409 kts | 278° |
| 2026-05-05 03:56 | 56.23199 | 2.89261 | 32993 ft | 409 kts | 278° |
| 2026-05-05 03:57 | 56.24126 | 2.79182 | 32999 ft | 409 kts | 278° |
| 2026-05-05 03:57 | 56.25045 | 2.69086 | 33000 ft | 409 kts | 278° |
| 2026-05-05 03:58 | 56.25951 | 2.58975 | 33001 ft | 410 kts | 278° |
| 2026-05-05 03:58 | 56.26853 | 2.48855 | 33000 ft | 410 kts | 278° |
| 2026-05-05 03:59 | 56.27752 | 2.38720 | 32987 ft | 410 kts | 278° |
| 2026-05-05 03:59 | 56.28640 | 2.28570 | 32986 ft | 411 kts | 278° |
| 2026-05-05 04:00 | 56.29522 | 2.18392 | 32988 ft | 411 kts | 278° |
| 2026-05-05 04:00 | 56.30395 | 2.08214 | 32993 ft | 411 kts | 278° |
| 2026-05-05 04:01 | 56.31256 | 1.98028 | 32995 ft | 411 kts | 278° |
| 2026-05-05 04:01 | 56.32108 | 1.87902 | 32994 ft | 411 kts | 277° |
| 2026-05-05 04:02 | 56.32957 | 1.77709 | 32986 ft | 411 kts | 278° |
| 2026-05-05 04:02 | 56.33796 | 1.67514 | 32994 ft | 411 kts | 277° |
| 2026-05-05 04:03 | 56.34622 | 1.57326 | 32983 ft | 410 kts | 277° |
| 2026-05-05 04:03 | 56.35441 | 1.47150 | 32989 ft | 410 kts | 277° |
| 2026-05-05 04:04 | 56.36249 | 1.36971 | 32995 ft | 409 kts | 277° |
| 2026-05-05 04:04 | 56.37050 | 1.26811 | 32992 ft | 409 kts | 277° |
| 2026-05-05 04:05 | 56.37841 | 1.16654 | 32991 ft | 408 kts | 277° |
| 2026-05-05 04:05 | 56.38622 | 1.06507 | 32983 ft | 408 kts | 277° |
| 2026-05-05 04:06 | 56.39264 | 0.98078 | 32992 ft | 408 kts | 277° |
| 2026-05-05 04:06 | 56.40030 | 0.87943 | 32993 ft | 407 kts | 277° |
| 2026-05-05 04:07 | 56.40787 | 0.77789 | 32988 ft | 409 kts | 277° |
| 2026-05-05 04:07 | 56.41576 | 0.67621 | 32996 ft | 409 kts | 277° |
| 2026-05-05 04:08 | 56.42371 | 0.57459 | 33001 ft | 409 kts | 277° |
| 2026-05-05 04:08 | 56.43150 | 0.47270 | 33000 ft | 410 kts | 277° |
| 2026-05-05 04:09 | 56.43920 | 0.37065 | 33001 ft | 410 kts | 277° |
| 2026-05-05 04:09 | 56.44682 | 0.26913 | 32999 ft | 411 kts | 277° |
| 2026-05-05 04:10 | 56.45438 | 0.16686 | 33001 ft | 411 kts | 277° |
| 2026-05-05 04:10 | 56.46187 | 0.06428 | 33001 ft | 412 kts | 277° |
| 2026-05-05 04:11 | 56.46944 | -0.03825 | 33003 ft | 411 kts | 277° |
| 2026-05-05 04:11 | 56.47674 | -0.13996 | 33000 ft | 406 kts | 277° |
| 2026-05-05 04:12 | 56.48390 | -0.24137 | 33000 ft | 406 kts | 277° |
| 2026-05-05 04:12 | 56.49101 | -0.34289 | 33002 ft | 407 kts | 277° |
| 2026-05-05 04:13 | 56.49804 | -0.44469 | 33000 ft | 408 kts | 277° |